createdAt,value
2019-05-30T00:00:30.591Z,58.56
2019-05-30T00:01:30.582Z,58.94
2019-05-30T00:02:30.565Z,59.37
2019-05-30T00:03:30.581Z,58.83
2019-05-30T00:04:30.542Z,59.67
2019-05-30T00:05:30.535Z,59.57
2019-05-30T00:06:30.519Z,59.54
2019-05-30T00:07:30.513Z,59.03
2019-05-30T00:08:30.522Z,59.37
2019-05-30T00:09:30.489Z,59.37
2019-05-30T00:10:30.494Z,59.44
2019-05-30T00:11:30.475Z,59.75
2019-05-30T00:12:30.461Z,59.84
2019-05-30T00:13:30.465Z,59.44
2019-05-30T00:14:30.428Z,60.18
2019-05-30T00:15:30.417Z,59.67
2019-05-30T00:16:30.412Z,59.54
2019-05-30T00:17:30.393Z,59.37
2019-05-30T00:18:30.412Z,59.95
2019-05-30T00:19:33.653Z,59.03
2019-05-30T00:20:30.373Z,60.25
2019-05-30T00:21:30.370Z,59.98
2019-05-30T00:22:30.344Z,60.18
2019-05-30T00:23:30.381Z,59.95
2019-05-30T00:24:30.318Z,59.95
2019-05-30T00:25:30.319Z,60.56
2019-05-30T00:26:30.289Z,60.49
2019-05-30T00:27:30.278Z,60.56
2019-05-30T00:28:30.304Z,60.66
2019-05-30T00:29:30.257Z,60.46
2019-05-30T00:30:30.248Z,60.25
2019-05-30T00:31:30.240Z,60.08
2019-05-30T00:32:30.223Z,60.89
2019-05-30T00:33:30.209Z,60.25
2019-05-30T00:34:30.222Z,60.36
2019-05-30T00:35:30.189Z,60.25
2019-05-30T00:36:30.177Z,60.66
2019-05-30T00:37:30.170Z,60.28
2019-05-30T00:38:30.191Z,60.56
2019-05-30T00:39:30.165Z,60.05
2019-05-30T00:40:30.172Z,60.56
2019-05-30T00:41:30.124Z,60.18
2019-05-30T00:42:30.108Z,60.05
2019-05-30T00:43:30.097Z,59.95
2019-05-30T00:44:30.108Z,60.05
2019-05-30T00:45:30.073Z,59.84
2019-05-30T00:46:30.097Z,60.25
2019-05-30T00:47:30.050Z,60.05
2019-05-30T00:48:30.041Z,60.05
2019-05-30T00:49:30.061Z,60.05
2019-05-30T00:50:30.021Z,59.84
2019-05-30T00:51:30.026Z,59.34
2019-05-30T00:52:30.003Z,59.84
2019-05-30T00:53:30.000Z,59.14
2019-05-30T00:54:29.973Z,59.44
2019-05-30T00:55:29.960Z,59.75
2019-05-30T00:56:29.986Z,59.11
2019-05-30T00:57:29.938Z,59.52
2019-05-30T00:58:29.934Z,59.62
2019-05-30T00:59:29.925Z,59.41
2019-05-30T01:00:42.813Z,59.21
2019-05-30T01:01:30.911Z,59.72
2019-05-30T01:02:29.880Z,59.52
2019-05-30T01:03:29.869Z,59.82
2019-05-30T01:04:29.890Z,59.31
2019-05-30T01:05:29.856Z,59.62
2019-05-30T01:06:29.837Z,59.62
2019-05-30T01:07:29.998Z,59.01
2019-05-30T01:08:29.819Z,58.80
2019-05-30T01:09:29.807Z,58.70
2019-05-30T01:10:29.814Z,58.70
2019-05-30T01:11:29.785Z,58.70
2019-05-30T01:12:29.790Z,59.01
2019-05-30T01:13:29.765Z,59.21
2019-05-30T01:14:29.748Z,59.01
2019-05-30T01:15:29.896Z,58.70
2019-05-30T01:16:29.726Z,58.80
2019-05-30T01:17:29.721Z,58.40
2019-05-30T01:18:29.706Z,59.41
2019-05-30T01:19:29.689Z,59.62
2019-05-30T01:20:29.702Z,59.21
2019-05-30T01:21:29.672Z,59.41
2019-05-30T01:22:29.741Z,59.31
2019-05-30T01:23:29.653Z,59.62
2019-05-30T01:24:29.643Z,59.44
2019-05-30T01:25:29.657Z,59.34
2019-05-30T01:26:29.610Z,58.70
2019-05-30T01:27:29.609Z,58.50
2019-05-30T01:28:29.599Z,59.52
2019-05-30T01:29:29.577Z,58.50
2019-05-30T01:30:29.585Z,58.50
2019-05-30T01:31:29.554Z,58.40
2019-05-30T01:32:29.572Z,58.80
2019-05-30T01:33:29.539Z,58.60
2019-05-30T01:34:29.521Z,58.29
2019-05-30T01:35:29.537Z,58.60
2019-05-30T01:36:29.502Z,58.70
2019-05-30T01:37:29.492Z,58.73
2019-05-30T01:38:29.475Z,58.20
2019-05-30T01:39:29.466Z,58.29
2019-05-30T01:40:29.486Z,58.80
2019-05-30T01:41:29.443Z,58.50
2019-05-30T01:42:29.431Z,59.11
2019-05-30T01:43:29.414Z,58.40
2019-05-30T01:44:29.410Z,58.40
2019-05-30T01:45:29.395Z,58.70
2019-05-30T01:46:29.406Z,58.60
2019-05-30T01:47:29.377Z,58.70
2019-05-30T01:48:29.386Z,58.40
2019-05-30T01:49:29.346Z,58.60
2019-05-30T01:50:29.361Z,58.70
2019-05-30T01:51:29.326Z,59.01
2019-05-30T01:52:29.310Z,58.50
2019-05-30T01:53:29.299Z,58.40
2019-05-30T01:54:29.290Z,58.50
2019-05-30T01:55:29.306Z,58.70
2019-05-30T01:56:29.266Z,58.80
2019-05-30T01:57:29.262Z,58.50
2019-05-30T01:58:29.244Z,59.31
2019-05-30T01:59:29.233Z,58.60
2019-05-30T02:00:29.251Z,58.60
2019-05-30T02:01:29.232Z,58.50
2019-05-30T02:02:29.201Z,58.70
2019-05-30T02:03:29.194Z,58.60
2019-05-30T02:04:29.180Z,58.80
2019-05-30T02:05:29.162Z,58.60
2019-05-30T02:06:29.187Z,58.60
2019-05-30T02:07:29.143Z,58.67
2019-05-30T02:08:29.131Z,58.58
2019-05-30T02:09:29.114Z,58.40
2019-05-30T02:10:29.110Z,57.99
2019-05-30T02:11:29.116Z,58.70
2019-05-30T02:12:29.083Z,58.06
2019-05-30T02:13:29.074Z,58.27
2019-05-30T02:14:29.057Z,58.37
2019-05-30T02:15:29.047Z,58.17
2019-05-30T02:16:29.221Z,58.80
2019-05-30T02:17:29.029Z,58.29
2019-05-30T02:18:29.011Z,58.98
2019-05-30T02:19:29.001Z,58.27
2019-05-30T02:20:28.996Z,59.08
2019-05-30T02:21:28.999Z,58.29
2019-05-30T02:22:29.003Z,58.67
2019-05-30T02:23:28.968Z,58.98
2019-05-30T02:24:28.946Z,58.40
2019-05-30T02:25:28.935Z,59.18
2019-05-30T02:26:28.975Z,58.78
2019-05-30T02:27:28.932Z,58.47
2019-05-30T02:28:28.912Z,58.78
2019-05-30T02:29:28.895Z,58.78
2019-05-30T02:30:28.889Z,58.88
2019-05-30T02:31:38.907Z,58.80
2019-05-30T02:32:29.877Z,58.58
2019-05-30T02:33:28.840Z,58.58
2019-05-30T02:34:28.835Z,59.01
2019-05-30T02:35:28.818Z,59.08
2019-05-30T02:36:28.805Z,58.67
2019-05-30T02:37:28.820Z,58.88
2019-05-30T02:38:28.783Z,58.60
2019-05-30T02:39:28.772Z,58.91
2019-05-30T02:40:28.761Z,58.47
2019-05-30T02:41:28.751Z,58.78
2019-05-30T02:42:28.774Z,58.78
2019-05-30T02:43:28.727Z,58.78
2019-05-30T02:44:28.715Z,58.78
2019-05-30T02:45:28.702Z,58.27
2019-05-30T02:46:28.691Z,58.67
2019-05-30T02:47:28.701Z,58.67
2019-05-30T02:48:28.670Z,59.08
2019-05-30T02:49:28.656Z,58.70
2019-05-30T02:50:28.645Z,58.67
2019-05-30T02:51:28.633Z,58.47
2019-05-30T02:52:28.649Z,58.78
2019-05-30T02:53:28.610Z,58.47
2019-05-30T02:54:28.598Z,58.78
2019-05-30T02:55:28.586Z,59.59
2019-05-30T02:56:28.576Z,59.28
2019-05-30T02:57:28.592Z,59.59
2019-05-30T02:58:28.581Z,59.31
2019-05-30T02:59:28.542Z,58.88
2019-05-30T03:00:28.534Z,59.21
2019-05-30T03:01:28.517Z,59.52
2019-05-30T03:02:28.532Z,59.18
2019-05-30T03:03:28.525Z,58.98
2019-05-30T03:04:28.499Z,59.18
2019-05-30T03:05:28.476Z,59.28
2019-05-30T03:06:28.464Z,59.48
2019-05-30T03:07:28.472Z,59.48
2019-05-30T03:08:28.443Z,59.18
2019-05-30T03:09:28.428Z,59.08
2019-05-30T03:10:28.423Z,59.48
2019-05-30T03:11:28.408Z,58.78
2019-05-30T03:12:28.423Z,58.98
2019-05-30T03:13:28.402Z,59.28
2019-05-30T03:14:28.369Z,59.08
2019-05-30T03:15:28.356Z,59.08
2019-05-30T03:16:28.346Z,58.78
2019-05-30T03:17:28.335Z,59.59
2019-05-30T03:18:28.353Z,59.28
2019-05-30T03:19:28.312Z,59.48
2019-05-30T03:20:28.300Z,59.28
2019-05-30T03:21:28.304Z,59.59
2019-05-30T03:22:28.281Z,59.18
2019-05-30T03:23:28.460Z,59.28
2019-05-30T03:24:28.253Z,59.89
2019-05-30T03:25:28.244Z,60.10
2019-05-30T03:26:28.248Z,59.89
2019-05-30T03:27:28.218Z,59.28
2019-05-30T03:28:28.251Z,59.28
2019-05-30T03:29:28.197Z,59.59
2019-05-30T03:30:29.654Z,59.08
2019-05-30T03:31:29.943Z,59.89
2019-05-30T03:33:02.406Z,59.99
2019-05-30T03:33:39.413Z,59.89
2019-05-30T03:34:29.614Z,59.99
2019-05-30T03:35:31.275Z,60.10
2019-05-30T03:36:31.690Z,60.40
2019-05-30T03:37:30.280Z,59.79
2019-05-30T03:38:28.111Z,60.50
2019-05-30T03:39:28.123Z,60.30
2019-05-30T03:40:29.827Z,60.47
2019-05-30T03:41:28.069Z,60.50
2019-05-30T03:42:28.063Z,60.71
2019-05-30T03:43:28.036Z,60.50
2019-05-30T03:44:28.054Z,60.10
2019-05-30T03:45:28.021Z,60.40
2019-05-30T03:46:28.001Z,60.20
2019-05-30T03:47:27.989Z,60.30
2019-05-30T03:48:27.984Z,60.17
2019-05-30T03:49:28.005Z,60.10
2019-05-30T03:50:27.958Z,60.40
2019-05-30T03:51:27.943Z,60.47
2019-05-30T03:52:27.932Z,60.07
2019-05-30T03:53:27.920Z,60.50
2019-05-30T03:54:27.949Z,60.50
2019-05-30T03:55:27.904Z,60.68
2019-05-30T03:56:27.885Z,60.37
2019-05-30T03:57:27.874Z,60.10
2019-05-30T03:58:27.864Z,59.97
2019-05-30T03:59:27.882Z,60.50
2019-05-30T04:00:27.841Z,60.88
2019-05-30T04:01:27.832Z,60.50
2019-05-30T04:02:27.817Z,60.58
2019-05-30T04:03:27.806Z,60.60
2019-05-30T04:04:27.821Z,60.17
2019-05-30T04:05:27.784Z,60.17
2019-05-30T04:06:27.779Z,60.37
2019-05-30T04:07:27.766Z,61.08
2019-05-30T04:08:27.745Z,60.88
2019-05-30T04:09:27.804Z,60.27
2019-05-30T04:10:27.733Z,60.17
2019-05-30T04:11:27.738Z,61.08
2019-05-30T04:12:27.715Z,60.17
2019-05-30T04:13:27.689Z,60.68
2019-05-30T04:14:27.677Z,60.37
2019-05-30T04:15:27.690Z,60.37
2019-05-30T04:16:27.659Z,60.58
2019-05-30T04:17:27.648Z,61.18
2019-05-30T04:18:27.642Z,61.18
2019-05-30T04:19:27.622Z,60.88
2019-05-30T04:20:27.633Z,61.08
2019-05-30T04:21:27.595Z,60.58
2019-05-30T04:22:27.592Z,60.68
2019-05-30T04:23:27.583Z,61.59
2019-05-30T04:24:27.578Z,61.59
2019-05-30T04:25:27.583Z,61.82
2019-05-30T04:26:27.570Z,61.90
2019-05-30T04:27:27.530Z,61.90
2019-05-30T04:28:27.519Z,62.30
2019-05-30T04:29:27.512Z,61.79
2019-05-30T04:30:27.528Z,61.49
2019-05-30T04:31:27.481Z,61.79
2019-05-30T04:32:27.472Z,62.40
2019-05-30T04:33:32.922Z,61.99
2019-05-30T04:34:28.446Z,62.30
2019-05-30T04:35:27.469Z,62.10
2019-05-30T04:36:27.459Z,62.40
2019-05-30T04:37:27.416Z,62.20
2019-05-30T04:38:27.410Z,62.40
2019-05-30T04:39:27.398Z,61.99
2019-05-30T04:40:27.402Z,62.40
2019-05-30T04:41:27.396Z,62.60
2019-05-30T04:42:27.363Z,62.40
2019-05-30T04:43:27.358Z,62.10
2019-05-30T04:44:27.346Z,62.10
2019-05-30T04:45:28.330Z,61.69
2019-05-30T04:46:27.385Z,62.07
2019-05-30T04:47:27.304Z,62.10
2019-05-30T04:48:27.293Z,62.17
2019-05-30T04:49:27.275Z,62.10
2019-05-30T04:50:27.264Z,61.76
2019-05-30T04:51:27.293Z,62.51
2019-05-30T04:52:27.249Z,62.51
2019-05-30T04:53:27.234Z,62.51
2019-05-30T04:54:27.273Z,61.90
2019-05-30T04:55:27.208Z,61.90
2019-05-30T04:56:27.229Z,61.79
2019-05-30T04:57:27.366Z,62.27
2019-05-30T04:58:27.174Z,61.66
2019-05-30T04:59:27.165Z,62.27
2019-05-30T05:00:27.161Z,61.97
2019-05-30T05:01:27.335Z,61.79
2019-05-30T05:02:27.132Z,61.87
2019-05-30T05:03:44.638Z,61.76
2019-05-30T05:04:28.107Z,62.07
2019-05-30T05:05:27.228Z,61.76
2019-05-30T05:06:27.088Z,61.66
2019-05-30T05:07:27.101Z,61.76
2019-05-30T05:08:27.064Z,61.97
2019-05-30T05:09:27.049Z,62.45
2019-05-30T05:10:27.035Z,61.83
2019-05-30T05:11:27.033Z,61.97
2019-05-30T05:12:27.039Z,61.76
2019-05-30T05:13:27.016Z,62.48
2019-05-30T05:14:26.996Z,61.63
2019-05-30T05:15:26.984Z,61.74
2019-05-30T05:16:35.324Z,62.24
2019-05-30T05:17:27.992Z,62.14
2019-05-30T05:18:26.957Z,61.97
2019-05-30T05:19:26.959Z,62.27
2019-05-30T05:20:26.935Z,62.37
2019-05-30T05:21:26.914Z,62.27
2019-05-30T05:22:26.923Z,62.88
2019-05-30T05:23:26.890Z,62.57
2019-05-30T05:24:26.876Z,62.37
2019-05-30T05:25:26.867Z,62.14
2019-05-30T05:26:26.862Z,62.14
2019-05-30T05:27:26.867Z,63.06
2019-05-30T05:28:26.836Z,62.48
2019-05-30T05:29:26.820Z,62.45
2019-05-30T05:30:26.814Z,62.75
2019-05-30T05:31:26.797Z,62.54
2019-05-30T05:32:27.048Z,62.65
2019-05-30T05:33:26.780Z,62.95
2019-05-30T05:34:26.762Z,62.65
2019-05-30T05:35:26.749Z,63.06
2019-05-30T05:36:26.743Z,63.46
2019-05-30T05:37:27.355Z,63.06
2019-05-30T05:38:26.746Z,62.95
2019-05-30T05:39:26.704Z,62.65
2019-05-30T05:40:26.713Z,63.35
2019-05-30T05:41:26.691Z,63.26
2019-05-30T05:42:29.097Z,63.46
2019-05-30T05:43:26.682Z,63.86
2019-05-30T05:44:26.647Z,63.26
2019-05-30T05:45:26.636Z,63.56
2019-05-30T05:46:26.634Z,63.43
2019-05-30T05:47:26.615Z,63.23
2019-05-30T05:48:26.623Z,63.76
2019-05-30T05:49:26.597Z,62.92
2019-05-30T05:50:26.580Z,63.32
2019-05-30T05:51:26.570Z,63.12
2019-05-30T05:52:26.556Z,63.23
2019-05-30T05:53:26.570Z,62.82
2019-05-30T05:54:26.532Z,63.43
2019-05-30T05:55:26.520Z,62.72
2019-05-30T05:56:26.514Z,62.01
2019-05-30T05:57:26.506Z,62.11
2019-05-30T05:58:26.604Z,62.41
2019-05-30T05:59:26.482Z,62.72
2019-05-30T06:00:26.483Z,63.09
2019-05-30T06:01:26.468Z,62.92
2019-05-30T06:02:27.232Z,62.72
2019-05-30T06:03:26.456Z,63.32
2019-05-30T06:04:27.350Z,63.30
2019-05-30T06:05:26.422Z,63.09
2019-05-30T06:06:27.381Z,63.12
2019-05-30T06:07:26.384Z,63.63
2019-05-30T06:08:27.615Z,63.73
2019-05-30T06:09:26.399Z,64.04
2019-05-30T06:10:26.353Z,64.64
2019-05-30T06:11:26.342Z,64.04
2019-05-30T06:12:26.326Z,63.93
2019-05-30T06:13:26.339Z,64.14
2019-05-30T06:14:26.316Z,63.83
2019-05-30T06:15:26.297Z,63.93
2019-05-30T06:16:26.292Z,64.04
2019-05-30T06:17:26.270Z,63.93
2019-05-30T06:18:26.373Z,64.24
2019-05-30T06:19:27.465Z,64.31
2019-05-30T06:20:27.355Z,64.31
2019-05-30T06:21:27.480Z,64.04
2019-05-30T06:22:26.217Z,63.81
2019-05-30T06:23:26.210Z,64.24
2019-05-30T06:24:26.199Z,64.01
2019-05-30T06:25:30.388Z,63.81
2019-05-30T06:26:28.021Z,63.50
2019-05-30T06:27:26.222Z,64.11
2019-05-30T06:28:26.378Z,64.21
2019-05-30T06:29:26.298Z,64.04
2019-05-30T06:30:26.465Z,64.11
2019-05-30T06:31:26.549Z,64.01
2019-05-30T06:32:26.772Z,64.11
2019-05-30T06:33:27.131Z,64.11
2019-05-30T06:34:32.755Z,63.30
2019-05-30T06:35:27.509Z,63.60
2019-05-30T06:36:27.202Z,63.60
2019-05-30T06:37:27.056Z,63.60
2019-05-30T06:38:27.290Z,63.50
2019-05-30T06:39:26.053Z,63.50
2019-05-30T06:40:26.051Z,63.70
2019-05-30T06:41:26.007Z,63.70
2019-05-30T06:42:25.988Z,63.60
2019-05-30T06:43:26.183Z,62.79
2019-05-30T06:44:26.130Z,63.60
2019-05-30T06:45:26.835Z,63.50
2019-05-30T06:46:26.185Z,63.81
2019-05-30T06:47:26.333Z,63.27
2019-05-30T06:48:26.842Z,63.30
2019-05-30T06:49:26.817Z,63.40
2019-05-30T06:50:26.865Z,63.47
2019-05-30T06:51:26.933Z,63.37
2019-05-30T06:52:27.014Z,63.70
2019-05-30T06:53:27.157Z,63.27
2019-05-30T06:54:26.297Z,63.27
2019-05-30T06:55:27.211Z,63.27
2019-05-30T06:56:25.825Z,63.27
2019-05-30T06:57:25.819Z,63.37
2019-05-30T06:58:41.475Z,63.57
2019-05-30T06:59:27.629Z,63.37
2019-05-30T07:00:26.481Z,64.28
2019-05-30T07:01:25.842Z,64.07
2019-05-30T07:02:26.223Z,64.18
2019-05-30T07:03:26.414Z,63.87
2019-05-30T07:04:27.483Z,64.79
2019-05-30T07:05:27.796Z,65.09
2019-05-30T07:06:27.262Z,65.09
2019-05-30T07:07:26.968Z,65.29
2019-05-30T07:08:26.752Z,66.50
2019-05-30T07:09:26.810Z,66.30
2019-05-30T07:10:26.713Z,66.64
2019-05-30T07:11:26.751Z,66.71
2019-05-30T07:12:26.341Z,67.11
2019-05-30T07:13:25.638Z,67.42
2019-05-30T07:14:25.623Z,67.93
2019-05-30T07:15:25.625Z,68.84
2019-05-30T07:16:25.622Z,68.23
2019-05-30T07:17:25.593Z,69.07
2019-05-30T07:18:25.587Z,69.17
2019-05-30T07:19:25.570Z,68.97
2019-05-30T07:20:25.613Z,70.08
2019-05-30T07:21:25.587Z,69.78
2019-05-30T07:22:25.643Z,69.88
2019-05-30T07:23:25.839Z,69.48
2019-05-30T07:24:25.710Z,69.17
2019-05-30T07:25:25.744Z,69.57
2019-05-30T07:26:25.685Z,69.37
2019-05-30T07:27:26.051Z,68.46
2019-05-30T07:28:25.817Z,69.07
2019-05-30T07:29:25.822Z,69.07
2019-05-30T07:30:25.866Z,69.04
2019-05-30T07:31:26.046Z,69.34
2019-05-30T07:32:25.833Z,68.63
2019-05-30T07:33:25.963Z,69.04
2019-05-30T07:34:25.945Z,69.04
2019-05-30T07:35:25.942Z,69.14
2019-05-30T07:36:26.121Z,69.14
2019-05-30T07:37:26.121Z,69.14
2019-05-30T07:38:26.358Z,69.34
2019-05-30T07:39:27.080Z,68.94
2019-05-30T07:40:26.479Z,68.94
2019-05-30T07:41:26.696Z,68.53
2019-05-30T07:42:26.457Z,68.43
2019-05-30T07:43:27.916Z,68.80
2019-05-30T07:44:25.295Z,69.21
2019-05-30T07:45:25.281Z,69.31
2019-05-30T07:46:25.284Z,68.80
2019-05-30T07:47:26.008Z,69.18
2019-05-30T07:48:26.004Z,68.70
2019-05-30T07:49:26.288Z,68.87
2019-05-30T07:50:26.306Z,69.27
2019-05-30T07:51:26.349Z,68.57
2019-05-30T07:52:26.376Z,68.77
2019-05-30T07:53:25.185Z,69.07
2019-05-30T07:54:25.164Z,68.97
2019-05-30T07:55:25.152Z,68.67
2019-05-30T07:56:25.169Z,68.97
2019-05-30T07:57:26.094Z,68.67
2019-05-30T07:58:25.119Z,68.16
2019-05-30T07:59:26.362Z,68.13
2019-05-30T08:00:25.131Z,68.33
2019-05-30T08:01:26.259Z,69.04
2019-05-30T08:02:25.102Z,68.33
2019-05-30T08:03:26.382Z,68.23
2019-05-30T08:04:25.053Z,69.14
2019-05-30T08:05:25.164Z,68.54
2019-05-30T08:06:25.064Z,68.94
2019-05-30T08:07:25.056Z,68.94
2019-05-30T08:08:25.012Z,68.13
2019-05-30T08:09:24.997Z,68.30
2019-05-30T08:10:24.986Z,68.63
2019-05-30T08:11:24.975Z,68.84
2019-05-30T08:12:24.996Z,69.14
2019-05-30T08:13:24.961Z,69.14
2019-05-30T08:14:24.946Z,69.34
2019-05-30T08:15:24.939Z,68.87
2019-05-30T08:16:24.922Z,68.94
2019-05-30T08:17:24.937Z,68.84
2019-05-30T08:18:24.908Z,68.84
2019-05-30T08:19:24.937Z,68.94
2019-05-30T08:20:24.879Z,69.14
2019-05-30T08:21:24.863Z,69.04
2019-05-30T08:22:24.880Z,69.71
2019-05-30T08:23:24.859Z,69.82
2019-05-30T08:24:24.840Z,69.51
2019-05-30T08:25:24.822Z,69.01
2019-05-30T08:26:24.811Z,69.31
2019-05-30T08:27:24.835Z,69.31
2019-05-30T08:28:24.789Z,69.62
2019-05-30T08:29:24.779Z,69.71
2019-05-30T08:30:24.836Z,69.31
2019-05-30T08:31:24.750Z,69.55
2019-05-30T08:32:24.751Z,69.42
2019-05-30T08:34:25.840Z,69.75
2019-05-30T08:35:40.169Z,69.75
2019-05-30T08:36:25.693Z,69.95
2019-05-30T08:37:24.712Z,70.66
2019-05-30T08:38:25.010Z,70.66
2019-05-30T08:39:24.680Z,70.36
2019-05-30T08:40:24.657Z,70.96
2019-05-30T08:41:24.640Z,70.76
2019-05-30T08:42:27.790Z,70.76
2019-05-30T08:43:24.664Z,70.66
2019-05-30T08:44:24.608Z,70.56
2019-05-30T08:45:24.613Z,70.66
2019-05-30T08:46:24.587Z,70.66
2019-05-30T08:47:24.579Z,70.76
2019-05-30T08:48:24.601Z,70.66
2019-05-30T08:49:24.550Z,71.00
2019-05-30T08:50:24.539Z,70.56
2019-05-30T08:51:24.528Z,71.17
2019-05-30T08:52:24.520Z,70.56
2019-05-30T08:53:24.545Z,70.86
2019-05-30T08:54:24.500Z,70.86
2019-05-30T08:55:24.483Z,70.79
2019-05-30T08:56:24.472Z,70.76
2019-05-30T08:57:24.467Z,70.66
2019-05-30T08:58:24.517Z,70.66
2019-05-30T08:59:24.443Z,71.06
2019-05-30T09:00:24.442Z,71.00
2019-05-30T09:01:24.422Z,70.96
2019-05-30T09:02:24.411Z,70.96
2019-05-30T09:03:24.455Z,71.26
2019-05-30T09:04:24.403Z,72.17
2019-05-30T09:05:24.372Z,71.30
2019-05-30T09:06:24.367Z,71.57
2019-05-30T09:07:24.506Z,72.08
2019-05-30T09:08:24.386Z,72.08
2019-05-30T09:09:24.334Z,71.37
2019-05-30T09:10:24.323Z,72.08
2019-05-30T09:11:24.321Z,72.08
2019-05-30T09:12:24.293Z,72.21
2019-05-30T09:13:24.308Z,72.08
2019-05-30T09:14:24.275Z,72.41
2019-05-30T09:15:24.327Z,72.51
2019-05-30T09:16:24.294Z,72.58
2019-05-30T09:17:24.247Z,72.68
2019-05-30T09:18:24.272Z,72.72
2019-05-30T09:19:24.223Z,72.92
2019-05-30T09:20:24.211Z,72.92
2019-05-30T09:21:24.197Z,73.22
2019-05-30T09:22:24.182Z,73.63
2019-05-30T09:23:24.197Z,73.43
2019-05-30T09:24:24.248Z,73.43
2019-05-30T09:25:24.150Z,73.83
2019-05-30T09:26:24.139Z,73.39
2019-05-30T09:27:24.128Z,73.12
2019-05-30T09:28:24.128Z,73.99
2019-05-30T09:29:24.126Z,73.39
2019-05-30T09:30:24.092Z,73.79
2019-05-30T09:31:24.092Z,73.59
2019-05-30T09:32:24.084Z,73.79
2019-05-30T09:33:24.062Z,73.49
2019-05-30T09:34:24.084Z,73.59
2019-05-30T09:35:24.044Z,73.69
2019-05-30T09:36:24.026Z,74.10
2019-05-30T09:37:24.015Z,74.19
2019-05-30T09:38:24.018Z,74.50
2019-05-30T09:39:24.025Z,75.10
2019-05-30T09:40:23.978Z,75.14
2019-05-30T09:41:23.969Z,75.34
2019-05-30T09:42:23.961Z,75.55
2019-05-30T09:43:23.949Z,75.65
2019-05-30T09:44:23.967Z,75.75
2019-05-30T09:45:23.947Z,75.68
2019-05-30T09:46:23.911Z,76.05
2019-05-30T09:47:23.913Z,75.75
2019-05-30T09:48:23.902Z,76.26
2019-05-30T09:49:23.945Z,76.59
2019-05-30T09:50:23.870Z,76.39
2019-05-30T09:51:23.857Z,76.05
2019-05-30T09:52:23.846Z,77.61
2019-05-30T09:53:23.836Z,77.30
2019-05-30T09:54:23.855Z,76.90
2019-05-30T09:55:23.827Z,77.06
2019-05-30T09:56:23.802Z,77.20
2019-05-30T09:57:23.789Z,77.00
2019-05-30T09:58:23.794Z,77.00
2019-05-30T09:59:23.770Z,77.40
2019-05-30T10:00:23.817Z,76.35
2019-05-30T10:01:23.745Z,76.66
2019-05-30T10:02:23.737Z,76.97
2019-05-30T10:03:23.734Z,77.06
2019-05-30T10:04:23.717Z,77.06
2019-05-30T10:05:24.920Z,76.97
2019-05-30T10:06:29.417Z,77.00
2019-05-30T10:07:24.726Z,76.86
2019-05-30T10:08:23.685Z,76.97
2019-05-30T10:09:23.662Z,77.37
2019-05-30T10:10:23.676Z,76.66
2019-05-30T10:11:23.639Z,77.17
2019-05-30T10:12:23.632Z,75.92
2019-05-30T10:13:23.622Z,77.23
2019-05-30T10:15:23.592Z,76.26
2019-05-30T10:16:23.612Z,76.52
2019-05-30T10:17:23.576Z,76.42
2019-05-30T10:18:23.561Z,76.42
2019-05-30T10:19:23.550Z,76.12
2019-05-30T10:20:23.546Z,76.52
2019-05-30T10:21:23.584Z,76.72
2019-05-30T10:22:23.524Z,76.22
2019-05-30T10:23:23.499Z,76.02
2019-05-30T10:24:23.498Z,76.22
2019-05-30T10:25:23.751Z,76.52
2019-05-30T10:26:23.502Z,76.42
2019-05-30T10:27:23.452Z,76.42
2019-05-30T10:28:23.455Z,76.42
2019-05-30T10:29:23.434Z,76.32
2019-05-30T10:30:23.449Z,76.02
2019-05-30T10:32:24.534Z,76.18
2019-05-30T10:33:23.391Z,76.08
2019-05-30T10:34:23.398Z,75.88
2019-05-30T10:35:23.380Z,76.28
2019-05-30T10:36:23.385Z,75.92
2019-05-30T10:37:23.342Z,75.88
2019-05-30T10:38:23.335Z,75.61
2019-05-30T10:39:23.320Z,75.68
2019-05-30T10:40:23.318Z,75.78
2019-05-30T10:41:23.325Z,75.88
2019-05-30T10:42:23.292Z,75.48
2019-05-30T10:43:23.281Z,75.57
2019-05-30T10:44:23.286Z,75.48
2019-05-30T10:45:23.253Z,75.48
2019-05-30T10:46:23.271Z,75.27
2019-05-30T10:47:23.229Z,75.54
2019-05-30T10:48:23.222Z,75.54
2019-05-30T10:49:34.195Z,75.44
2019-05-30T10:50:24.197Z,75.44
2019-05-30T10:51:23.214Z,75.04
2019-05-30T10:52:23.213Z,74.73
2019-05-30T10:53:23.167Z,75.10
2019-05-30T10:54:23.158Z,75.31
2019-05-30T10:55:23.144Z,74.69
2019-05-30T10:56:23.171Z,75.00
2019-05-30T10:57:23.131Z,74.69
2019-05-30T10:58:23.163Z,74.84
2019-05-30T10:59:23.104Z,74.80
2019-05-30T11:00:23.088Z,75.00
2019-05-30T11:01:23.077Z,74.69
2019-05-30T11:02:23.089Z,74.80
2019-05-30T11:03:23.057Z,74.29
2019-05-30T11:05:24.151Z,74.96
2019-05-30T11:06:23.031Z,74.73
2019-05-30T11:07:23.043Z,74.80
2019-05-30T11:08:23.024Z,74.29
2019-05-30T11:09:23.001Z,74.29
2019-05-30T11:10:22.977Z,74.29
2019-05-30T11:11:22.967Z,75.00
2019-05-30T11:12:22.986Z,74.69
2019-05-30T11:13:22.979Z,74.63
2019-05-30T11:14:22.928Z,74.60
2019-05-30T11:15:22.929Z,74.73
2019-05-30T11:16:22.911Z,74.43
2019-05-30T11:17:22.938Z,74.43
2019-05-30T11:18:22.890Z,74.73
2019-05-30T11:19:22.874Z,74.73
2019-05-30T11:20:22.871Z,74.93
2019-05-30T11:21:22.859Z,74.93
2019-05-30T11:22:22.905Z,74.84
2019-05-30T11:23:22.847Z,75.24
2019-05-30T11:24:22.837Z,74.84
2019-05-30T11:25:22.815Z,75.04
2019-05-30T11:26:22.803Z,74.80
2019-05-30T11:27:22.793Z,75.13
2019-05-30T11:28:22.798Z,75.04
2019-05-30T11:29:22.781Z,75.24
2019-05-30T11:30:22.767Z,74.80
2019-05-30T11:31:22.748Z,75.04
2019-05-30T11:32:22.741Z,74.84
2019-05-30T11:33:22.763Z,75.13
2019-05-30T11:34:22.716Z,75.04
2019-05-30T11:35:22.705Z,75.31
2019-05-30T11:36:22.683Z,74.80
2019-05-30T11:37:22.678Z,74.80
2019-05-30T11:38:22.703Z,74.76
2019-05-30T11:39:22.663Z,74.80
2019-05-30T11:40:22.647Z,74.80
2019-05-30T11:41:22.642Z,74.56
2019-05-30T11:42:22.641Z,74.90
2019-05-30T11:43:22.640Z,74.90
2019-05-30T11:44:22.605Z,74.66
2019-05-30T11:45:22.591Z,73.75
2019-05-30T11:46:22.575Z,74.56
2019-05-30T11:47:22.563Z,74.76
2019-05-30T11:48:22.555Z,74.36
2019-05-30T11:49:22.579Z,74.36
2019-05-30T11:50:22.531Z,74.36
2019-05-30T11:51:22.527Z,73.85
2019-05-30T11:52:22.517Z,74.46
2019-05-30T11:53:22.521Z,74.36
2019-05-30T11:54:22.552Z,74.90
2019-05-30T11:55:22.480Z,74.49
2019-05-30T11:56:22.464Z,74.56
2019-05-30T11:57:22.465Z,75.10
2019-05-30T11:58:22.440Z,74.76
2019-05-30T11:59:22.482Z,74.76
2019-05-30T12:00:22.418Z,74.46
2019-05-30T12:01:22.413Z,74.76
2019-05-30T12:02:22.404Z,74.36
2019-05-30T12:03:22.528Z,74.46
2019-05-30T12:04:22.400Z,74.56
2019-05-30T12:05:22.368Z,74.19
2019-05-30T12:06:22.359Z,74.46
2019-05-30T12:07:35.861Z,74.87
2019-05-30T12:08:23.335Z,74.76
2019-05-30T12:09:22.357Z,74.66
2019-05-30T12:10:22.315Z,74.36
2019-05-30T12:12:22.290Z,74.96
2019-05-30T12:13:22.283Z,74.80
2019-05-30T12:14:22.287Z,74.36
2019-05-30T12:15:22.266Z,74.80
2019-05-30T12:16:22.240Z,75.16
2019-05-30T12:17:22.243Z,74.87
2019-05-30T12:18:22.234Z,74.76
2019-05-30T12:19:22.239Z,74.76
2019-05-30T12:20:22.204Z,74.66
2019-05-30T12:21:22.184Z,74.76
2019-05-30T12:22:22.170Z,74.16
2019-05-30T12:23:22.173Z,74.56
2019-05-30T12:24:22.185Z,74.46
2019-05-30T12:25:22.180Z,75.16
2019-05-30T12:26:22.143Z,74.46
2019-05-30T12:27:22.136Z,74.83
2019-05-30T12:28:22.109Z,74.93
2019-05-30T12:29:22.107Z,74.36
2019-05-30T12:30:22.118Z,74.32
2019-05-30T12:31:22.077Z,74.32
2019-05-30T12:32:22.068Z,74.05
2019-05-30T12:33:22.052Z,74.73
2019-05-30T12:34:22.041Z,74.63
2019-05-30T12:35:22.050Z,74.73
2019-05-30T12:36:22.023Z,74.73
2019-05-30T12:37:23.623Z,74.83
2019-05-30T12:38:22.001Z,74.22
2019-05-30T12:39:21.984Z,74.52
2019-05-30T12:40:22.020Z,74.63
2019-05-30T12:41:21.963Z,74.02
2019-05-30T12:42:21.952Z,74.26
2019-05-30T12:43:21.951Z,74.22
2019-05-30T12:44:21.943Z,74.43
2019-05-30T12:45:21.916Z,74.02
2019-05-30T12:46:21.939Z,74.02
2019-05-30T12:47:21.889Z,74.32
2019-05-30T12:48:21.903Z,74.43
2019-05-30T12:49:21.879Z,74.63
2019-05-30T12:50:21.860Z,74.83
2019-05-30T12:51:21.887Z,74.73
2019-05-30T12:52:21.836Z,74.83
2019-05-30T12:53:21.845Z,74.32
2019-05-30T12:54:21.817Z,74.32
2019-05-30T12:55:21.803Z,74.32
2019-05-30T12:56:21.824Z,74.63
2019-05-30T12:57:21.799Z,74.12